createdAt,value
2023-11-23T00:03:40.865Z,21.30
2023-11-23T00:08:05.431Z,21.60
2023-11-23T00:12:30.129Z,22.53
2023-11-23T00:16:54.553Z,20.83
2023-11-23T00:21:19.225Z,21.73
2023-11-23T00:25:41.684Z,19.97
2023-11-23T00:30:06.193Z,18.73
2023-11-23T00:34:30.180Z,19.37
2023-11-23T00:38:54.947Z,18.00
2023-11-23T00:43:19.040Z,19.40
2023-11-23T00:47:43.660Z,15.87
2023-11-23T00:52:08.652Z,18.43
2023-11-23T00:56:32.575Z,15.97
2023-11-23T01:00:55.416Z,15.70
2023-11-23T01:05:19.980Z,17.03
2023-11-23T01:09:43.648Z,18.20
2023-11-23T01:14:10.840Z,15.90
2023-11-23T01:18:34.797Z,19.80
2023-11-23T01:22:59.142Z,16.80
2023-11-23T01:27:25.575Z,18.07
2023-11-23T01:31:50.170Z,20.40
2023-11-23T01:36:15.129Z,20.77
2023-11-23T01:40:39.984Z,22.83
2023-11-23T01:45:04.072Z,20.97
2023-11-23T01:49:30.868Z,23.03
2023-11-23T01:53:55.956Z,22.03
2023-11-23T01:58:19.558Z,22.83
2023-11-23T02:02:44.415Z,22.97
2023-11-23T02:07:08.679Z,18.90
2023-11-23T02:11:33.846Z,22.97
2023-11-23T02:15:59.279Z,23.63
2023-11-23T02:20:22.968Z,24.97
2023-11-23T02:24:47.741Z,21.67
2023-11-23T02:29:12.010Z,23.73
2023-11-23T02:33:36.808Z,21.27
2023-11-23T02:38:00.718Z,20.77
2023-11-23T02:42:24.392Z,22.77
2023-11-23T02:46:47.880Z,23.60
2023-11-23T02:51:12.325Z,23.67
2023-11-23T02:55:37.504Z,23.07
2023-11-23T03:00:01.722Z,19.60
2023-11-23T03:04:25.384Z,22.27
2023-11-23T03:08:48.780Z,23.13
2023-11-23T03:13:13.646Z,20.67
2023-11-23T03:17:36.324Z,18.80
2023-11-23T03:22:00.383Z,17.13
2023-11-23T03:26:24.534Z,17.73
2023-11-23T03:30:48.493Z,17.90
2023-11-23T03:35:14.018Z,19.23
2023-11-23T03:39:37.987Z,18.17
2023-11-23T03:44:00.744Z,19.30
2023-11-23T03:48:25.473Z,19.07
2023-11-23T03:52:50.445Z,20.27
2023-11-23T03:57:15.504Z,20.13
2023-11-23T04:01:47.010Z,21.40
2023-11-23T04:06:11.534Z,23.13
2023-11-23T04:10:35.962Z,19.83
2023-11-23T04:15:00.544Z,19.03
2023-11-23T04:19:23.073Z,18.80
2023-11-23T04:23:45.648Z,18.23
2023-11-23T04:28:09.958Z,18.43
2023-11-23T04:32:35.410Z,17.73
2023-11-23T04:37:02.038Z,16.53
2023-11-23T04:41:26.128Z,19.13
2023-11-23T04:45:50.208Z,17.33
2023-11-23T04:50:13.499Z,16.20
2023-11-23T04:54:36.331Z,13.47
2023-11-23T04:58:59.733Z,13.93
2023-11-23T05:03:22.372Z,13.93
2023-11-23T05:07:46.423Z,11.47
2023-11-23T05:12:12.720Z,13.73
2023-11-23T05:16:37.952Z,13.70
2023-11-23T05:21:01.283Z,14.03
2023-11-23T05:25:25.285Z,12.23
2023-11-23T05:29:51.585Z,13.90
2023-11-23T05:34:16.467Z,15.23
2023-11-23T05:38:40.840Z,13.53
2023-11-23T05:43:06.309Z,12.43
2023-11-23T05:47:30.494Z,13.23
2023-11-23T05:51:57.156Z,14.27
2023-11-23T05:56:20.466Z,13.57
2023-11-23T06:00:45.142Z,15.40
2023-11-23T06:05:08.901Z,14.67
2023-11-23T06:09:33.361Z,16.80
2023-11-23T06:13:57.625Z,13.00
2023-11-23T06:18:23.389Z,13.80
2023-11-23T06:22:47.432Z,18.50
2023-11-23T06:27:12.364Z,11.10
2023-11-23T06:31:37.752Z,20.73
2023-11-23T06:36:01.668Z,12.60
2023-11-23T06:40:25.164Z,13.73
2023-11-23T06:44:49.411Z,9.30
2023-11-23T06:49:13.184Z,10.87
2023-11-23T06:53:45.681Z,11.20
2023-11-23T06:58:12.456Z,9.40
2023-11-23T07:02:37.747Z,9.30
2023-11-23T07:07:01.519Z,11.00
2023-11-23T07:11:26.174Z,12.27
2023-11-23T07:15:51.436Z,10.03
2023-11-23T07:20:17.038Z,10.67
2023-11-23T07:24:42.672Z,11.03
2023-11-23T07:29:07.245Z,17.23
2023-11-23T07:33:36.382Z,8.77
2023-11-23T07:38:00.818Z,12.63
2023-11-23T07:42:24.383Z,11.20
2023-11-23T07:46:48.608Z,12.23
2023-11-23T07:51:12.310Z,16.67
2023-11-23T07:55:35.426Z,15.07
2023-11-23T07:59:59.564Z,13.00
2023-11-23T08:04:23.113Z,16.35
2023-11-23T08:08:47.666Z,18.67
2023-11-23T08:13:11.755Z,21.53
2023-11-23T08:17:44.128Z,20.33
2023-11-23T08:22:12.393Z,16.40
2023-11-23T08:26:37.026Z,17.77
2023-11-23T08:31:00.514Z,13.07
2023-11-23T08:35:23.915Z,20.43
2023-11-23T08:39:48.050Z,14.53
2023-11-23T08:44:11.490Z,11.83
2023-11-23T08:48:35.647Z,12.53
2023-11-23T08:53:00.499Z,14.37
2023-11-23T08:57:24.082Z,11.57
2023-11-23T09:01:57.135Z,16.20
2023-11-23T09:06:25.534Z,10.93
2023-11-23T09:10:50.366Z,17.53
2023-11-23T09:15:15.706Z,9.27
2023-11-23T09:19:39.501Z,14.53
2023-11-23T09:24:05.190Z,13.37
2023-11-23T09:28:28.915Z,15.93
2023-11-23T09:32:52.177Z,18.27
2023-11-23T09:37:16.310Z,15.20
2023-11-23T09:41:44.024Z,18.77
2023-11-23T09:46:08.531Z,10.67
2023-11-23T09:50:35.617Z,11.63
2023-11-23T09:55:03.402Z,12.07
2023-11-23T09:59:27.627Z,10.97
2023-11-23T10:03:55.088Z,14.93
2023-11-23T10:08:19.304Z,12.63
2023-11-23T10:12:43.666Z,14.13
2023-11-23T10:17:07.318Z,8.87
2023-11-23T10:21:30.016Z,13.60
2023-11-23T10:25:58.167Z,9.90
2023-11-23T10:30:22.294Z,9.20
2023-11-23T10:34:46.675Z,10.53
2023-11-23T10:39:14.054Z,12.00
2023-11-23T10:43:40.649Z,10.30
2023-11-23T10:48:05.345Z,11.43
2023-11-23T10:52:30.197Z,15.77
2023-11-23T10:56:55.399Z,14.67
2023-11-23T11:01:23.625Z,10.93
2023-11-23T11:05:51.367Z,11.30
2023-11-23T11:10:16.437Z,17.50
2023-11-23T11:14:41.692Z,18.80
2023-11-23T11:19:08.797Z,14.37
2023-11-23T11:23:41.948Z,13.73
2023-11-23T11:28:10.632Z,17.63
2023-11-23T11:32:37.708Z,12.30
2023-11-23T11:37:01.364Z,14.03
2023-11-23T11:41:30.196Z,15.60
2023-11-23T11:45:55.803Z,14.20
2023-11-23T11:50:20.378Z,14.77
2023-11-23T11:54:44.181Z,13.23
2023-11-23T11:59:08.896Z,16.73
2023-11-23T12:03:33.350Z,14.77
2023-11-23T12:07:58.012Z,21.87
2023-11-23T12:12:20.831Z,12.17
2023-11-23T12:16:46.661Z,15.07
2023-11-23T12:21:16.912Z,14.23
2023-11-23T12:25:40.073Z,14.07
2023-11-23T12:30:04.172Z,13.93
2023-11-23T12:34:28.894Z,16.77
2023-11-23T12:38:52.740Z,14.53
2023-11-23T12:43:17.211Z,13.63
2023-11-23T12:47:41.750Z,13.13
2023-11-23T12:52:04.593Z,15.37
2023-11-23T12:56:27.497Z,16.23
2023-11-23T13:00:50.942Z,11.57
2023-11-23T13:05:15.276Z,9.50
2023-11-23T13:09:39.772Z,10.03
2023-11-23T13:14:03.528Z,10.00
2023-11-23T13:18:44.374Z,9.73
2023-11-23T13:23:10.511Z,6.30
2023-11-23T13:27:36.001Z,8.10
2023-11-23T13:31:59.815Z,6.30
2023-11-23T13:36:22.331Z,8.83
2023-11-23T13:40:50.523Z,7.50
2023-11-23T13:45:18.152Z,8.23
2023-11-23T13:49:44.694Z,5.63
2023-11-23T13:54:11.554Z,9.60
2023-11-23T13:58:35.727Z,6.50
2023-11-23T14:02:58.358Z,6.27
2023-11-23T14:07:22.382Z,10.17
2023-11-23T14:11:47.064Z,7.53
2023-11-23T14:16:10.307Z,9.50
2023-11-23T14:20:34.034Z,9.77
2023-11-23T14:24:58.410Z,7.37
2023-11-23T14:29:22.168Z,10.90
2023-11-23T14:33:46.655Z,6.60
2023-11-23T14:38:11.947Z,8.57
2023-11-23T14:42:41.551Z,8.77
2023-11-23T14:47:09.688Z,11.97
2023-11-23T14:51:34.169Z,8.03
2023-11-23T14:56:00.194Z,6.53
2023-11-23T15:00:26.385Z,6.93
2023-11-23T15:04:50.416Z,4.83
2023-11-23T15:09:15.479Z,7.33
2023-11-23T15:13:40.173Z,3.93
2023-11-23T15:18:06.156Z,7.70
2023-11-23T15:22:30.385Z,4.10
2023-11-23T15:26:55.821Z,5.13
2023-11-23T15:31:20.941Z,4.40
2023-11-23T15:35:44.922Z,4.50
2023-11-23T15:40:11.670Z,4.10
2023-11-23T15:44:35.955Z,5.10
2023-11-23T15:48:59.961Z,6.43
2023-11-23T15:53:23.957Z,6.13
2023-11-23T15:57:49.099Z,7.53
2023-11-23T16:02:15.547Z,11.87
2023-11-23T16:06:40.132Z,10.20
2023-11-23T16:11:05.148Z,8.00
2023-11-23T16:15:28.693Z,9.03
2023-11-23T16:19:51.097Z,6.67
2023-11-23T16:24:13.788Z,12.27
2023-11-23T16:28:37.698Z,6.23
2023-11-23T16:33:00.292Z,6.67
2023-11-23T16:37:24.306Z,3.63
2023-11-23T16:41:50.251Z,4.13
2023-11-23T16:46:14.935Z,4.07
2023-11-23T16:50:38.622Z,8.00
2023-11-23T16:55:04.492Z,8.43
2023-11-23T16:59:27.834Z,10.47
2023-11-23T17:03:52.590Z,9.47
2023-11-23T17:08:20.986Z,8.17
2023-11-23T17:12:46.358Z,8.27
2023-11-23T17:17:11.169Z,9.47
2023-11-23T17:21:35.493Z,14.13
2023-11-23T17:26:00.625Z,11.88
2023-11-23T17:30:24.875Z,7.67
2023-11-23T17:34:49.762Z,7.97
2023-11-23T17:39:16.755Z,9.03
2023-11-23T17:43:40.389Z,12.67
2023-11-23T17:48:06.537Z,13.80
2023-11-23T17:52:30.984Z,14.30
2023-11-23T17:56:57.296Z,12.87
2023-11-23T18:01:22.056Z,18.17
2023-11-23T18:05:46.717Z,17.20
2023-11-23T18:10:11.570Z,13.57
2023-11-23T18:14:34.160Z,10.07
2023-11-23T18:19:05.490Z,15.83
2023-11-23T18:23:29.104Z,14.33
2023-11-23T18:27:53.121Z,12.00
2023-11-23T18:32:18.979Z,12.10
2023-11-23T18:36:52.553Z,13.73
2023-11-23T18:41:26.607Z,12.63
2023-11-23T18:45:50.913Z,13.33
2023-11-23T18:50:18.914Z,16.27
2023-11-23T18:54:42.485Z,15.37
2023-11-23T18:59:07.136Z,13.90
2023-11-23T19:03:32.021Z,15.97
2023-11-23T19:07:57.808Z,15.00
2023-11-23T19:12:27.517Z,15.50
2023-11-23T19:16:52.383Z,11.53
2023-11-23T19:21:17.119Z,8.27
2023-11-23T19:25:41.384Z,7.60
2023-11-23T19:30:09.961Z,8.00
2023-11-23T19:34:59.709Z,10.17
2023-11-23T19:39:24.335Z,10.80
2023-11-23T19:43:49.752Z,17.13
2023-11-23T19:48:25.189Z,10.20
2023-11-23T19:52:52.159Z,15.83
2023-11-23T19:57:17.036Z,13.33
2023-11-23T20:01:39.752Z,13.83
2023-11-23T20:06:05.128Z,11.93
2023-11-23T20:10:32.815Z,10.43
2023-11-23T20:14:56.654Z,9.20
2023-11-23T20:19:23.261Z,9.30
2023-11-23T20:23:54.507Z,10.70
2023-11-23T20:28:19.428Z,8.27
2023-11-23T20:32:42.948Z,12.70
2023-11-23T20:37:08.164Z,8.00
2023-11-23T20:41:33.472Z,12.90
2023-11-23T20:45:58.318Z,11.73
2023-11-23T20:50:21.584Z,10.37
2023-11-23T20:54:46.360Z,12.53
2023-11-23T20:59:11.939Z,14.43
2023-11-23T21:03:49.725Z,18.17
2023-11-23T21:08:15.188Z,11.20
2023-11-23T21:12:41.505Z,12.83
2023-11-23T21:21:51.706Z,17.53
2023-11-23T21:26:15.844Z,14.30
2023-11-23T21:30:39.843Z,14.23
2023-11-23T21:35:06.081Z,12.63
2023-11-23T21:39:29.574Z,12.47
2023-11-23T21:43:56.462Z,14.03
2023-11-23T21:48:27.227Z,12.07
2023-11-23T21:52:52.681Z,17.90
2023-11-23T21:57:21.081Z,14.33
2023-11-23T22:01:46.146Z,12.13
2023-11-23T22:06:10.840Z,12.40
2023-11-23T22:10:35.821Z,11.33
2023-11-23T22:15:00.214Z,10.83
2023-11-23T22:19:26.785Z,22.03
2023-11-23T22:23:50.963Z,14.93
2023-11-23T22:28:16.066Z,12.10
2023-11-23T22:32:40.518Z,21.17
2023-11-23T22:37:08.542Z,11.03
2023-11-23T22:41:36.984Z,9.63
2023-11-23T22:46:00.198Z,12.30
2023-11-23T22:50:23.056Z,14.53
2023-11-23T22:54:50.567Z,13.00
2023-11-23T22:59:15.458Z,11.43
2023-11-23T23:03:43.232Z,16.73
2023-11-23T23:08:09.849Z,13.93
2023-11-23T23:12:33.199Z,13.97
2023-11-23T23:16:58.157Z,16.87
2023-11-23T23:21:22.796Z,16.83
2023-11-23T23:25:52.396Z,7.47
2023-11-23T23:30:21.782Z,5.20
2023-11-23T23:34:44.755Z,7.03
2023-11-23T23:39:10.291Z,4.93
2023-11-23T23:43:34.477Z,4.13
2023-11-23T23:48:01.277Z,2.77
2023-11-23T23:52:35.007Z,4.83
2023-11-23T23:57:02.356Z,7.43
